createdAt,value
2018-09-01T00:00:43.022Z,3.60
2018-09-01T00:03:11.624Z,4.00
2018-09-01T00:05:40.306Z,3.60
2018-09-01T00:08:08.906Z,3.70
2018-09-01T00:10:37.519Z,3.53
2018-09-01T00:13:06.141Z,4.23
2018-09-01T00:15:34.994Z,3.57
2018-09-01T00:18:03.599Z,4.20
2018-09-01T00:20:32.218Z,4.67
2018-09-01T00:23:00.809Z,4.53
2018-09-01T00:25:29.464Z,4.20
2018-09-01T00:27:58.081Z,4.20
2018-09-01T00:30:26.692Z,4.10
2018-09-01T00:32:55.287Z,4.00
2018-09-01T00:35:23.896Z,3.90
2018-09-01T00:37:57.556Z,3.30
2018-09-01T00:40:27.512Z,3.60
2018-09-01T00:42:57.922Z,4.10
2018-09-01T00:45:26.643Z,4.20
2018-09-01T00:47:55.258Z,4.20
2018-09-01T00:50:23.941Z,4.07
2018-09-01T00:52:52.548Z,4.23
2018-09-01T00:55:26.320Z,4.50
2018-09-01T00:57:55.080Z,3.97
2018-09-01T01:00:23.977Z,3.03
2018-09-01T01:02:52.848Z,3.23
2018-09-01T01:05:21.917Z,3.30
2018-09-01T01:07:50.540Z,4.10
2018-09-01T01:10:19.139Z,4.33
2018-09-01T01:12:48.724Z,4.00
2018-09-01T01:15:17.417Z,4.33
2018-09-01T01:17:45.974Z,4.07
2018-09-01T01:20:14.565Z,3.60
2018-09-01T01:22:43.148Z,3.40
2018-09-01T01:25:11.753Z,3.00
2018-09-01T01:27:40.385Z,2.90
2018-09-01T01:30:09.005Z,2.77
2018-09-01T01:32:37.761Z,3.80
2018-09-01T01:35:06.464Z,3.90
2018-09-01T01:37:36.816Z,3.50
2018-09-01T01:40:06.238Z,3.90
2018-09-01T01:42:36.103Z,4.70
2018-09-01T01:45:05.034Z,3.87
2018-09-01T01:47:38.848Z,3.60
2018-09-01T01:50:08.542Z,5.10
2018-09-01T01:52:37.118Z,4.53
2018-09-01T01:55:05.987Z,4.80
2018-09-01T01:57:38.692Z,4.50
2018-09-01T02:00:07.696Z,4.63
2018-09-01T02:02:36.751Z,3.70
2018-09-01T02:05:06.432Z,3.10
2018-09-01T02:07:34.994Z,3.63
2018-09-01T02:10:03.653Z,3.47
2018-09-01T02:12:32.225Z,3.70
2018-09-01T02:15:01.110Z,3.40
2018-09-01T02:17:29.757Z,3.40
2018-09-01T02:19:58.340Z,3.43
2018-09-01T02:22:26.913Z,4.10
2018-09-01T02:24:55.540Z,4.87
2018-09-01T02:27:24.132Z,5.37
2018-09-01T02:29:52.750Z,5.33
2018-09-01T02:32:21.386Z,6.00
2018-09-01T02:34:50.021Z,4.90
2018-09-01T02:37:18.621Z,4.57
2018-09-01T02:39:47.266Z,4.23
2018-09-01T02:42:15.850Z,3.87
2018-09-01T02:44:44.588Z,5.00
2018-09-01T02:47:13.222Z,4.90
2018-09-01T02:49:41.805Z,5.30
2018-09-01T02:52:10.418Z,6.77
2018-09-01T02:54:39.021Z,5.73
2018-09-01T02:57:07.835Z,6.00
2018-09-01T02:59:36.471Z,5.03
2018-09-01T03:02:05.209Z,3.90
2018-09-01T03:04:33.832Z,4.80
2018-09-01T03:07:02.578Z,4.60
2018-09-01T03:09:31.181Z,4.90
2018-09-01T03:12:00.102Z,5.83
2018-09-01T03:14:29.005Z,5.73
2018-09-01T03:16:57.917Z,5.80
2018-09-01T03:19:27.013Z,6.60
2018-09-01T03:21:55.618Z,6.07
2018-09-01T03:24:24.208Z,4.50
2018-09-01T03:26:52.822Z,4.70
2018-09-01T03:29:21.408Z,4.00
2018-09-01T03:31:50.005Z,5.67
2018-09-01T03:34:18.592Z,5.80
2018-09-01T03:36:47.195Z,6.77
2018-09-01T03:39:15.770Z,7.83
2018-09-01T03:41:44.393Z,6.00
2018-09-01T03:44:12.969Z,5.47
2018-09-01T03:46:41.593Z,4.80
2018-09-01T03:49:10.833Z,4.50
2018-09-01T03:51:39.437Z,6.90
2018-09-01T03:54:08.030Z,7.20
2018-09-01T03:56:36.643Z,6.17
2018-09-01T03:59:05.412Z,5.97
2018-09-01T04:01:34.004Z,6.00
2018-09-01T04:04:02.729Z,5.53
2018-09-01T04:06:31.342Z,5.53
2018-09-01T04:08:59.929Z,6.37
2018-09-01T04:11:28.532Z,6.40
2018-09-01T04:13:57.174Z,7.20
2018-09-01T04:16:25.776Z,6.70
2018-09-01T04:18:54.404Z,6.33
2018-09-01T04:21:23.017Z,6.67
2018-09-01T04:23:51.624Z,6.10
2018-09-01T04:26:20.257Z,6.60
2018-09-01T04:28:48.836Z,8.00
2018-09-01T04:31:17.440Z,6.40
2018-09-01T04:33:46.019Z,7.57
2018-09-01T04:36:14.638Z,10.10
2018-09-01T04:38:43.227Z,12.20
2018-09-01T04:41:11.896Z,12.20
2018-09-01T04:43:40.531Z,12.23
2018-09-01T04:46:09.137Z,13.60
2018-09-01T04:48:37.734Z,12.50
2018-09-01T04:51:06.323Z,12.80
2018-09-01T04:53:34.918Z,14.87
2018-09-01T04:56:03.498Z,15.60
2018-09-01T04:58:32.127Z,17.17
2018-09-01T05:01:00.765Z,13.67
2018-09-01T05:03:29.369Z,15.67
2018-09-01T05:05:57.945Z,17.97
2018-09-01T05:08:26.562Z,18.20
2018-09-01T05:10:55.147Z,16.80
2018-09-01T05:13:23.740Z,16.20
2018-09-01T05:15:52.309Z,15.30
2018-09-01T05:18:20.876Z,16.10
2018-09-01T05:20:49.441Z,16.40
2018-09-01T05:23:18.098Z,16.47
2018-09-01T05:25:46.761Z,15.80
2018-09-01T05:28:15.364Z,18.23
2018-09-01T05:30:43.963Z,16.17
2018-09-01T05:33:12.610Z,16.37
2018-09-01T05:35:41.231Z,16.27
2018-09-01T05:38:09.835Z,13.83
2018-09-01T05:40:38.414Z,13.30
2018-09-01T05:43:07.015Z,14.27
2018-09-01T05:45:35.598Z,14.60
2018-09-01T05:48:04.222Z,15.30
2018-09-01T05:50:32.791Z,15.07
2018-09-01T05:53:01.383Z,15.13
2018-09-01T05:55:30.046Z,15.20
2018-09-01T05:57:58.656Z,15.27
2018-09-01T06:00:27.329Z,15.10
2018-09-01T06:02:55.940Z,17.33
2018-09-01T06:05:24.519Z,21.30
2018-09-01T06:07:53.135Z,18.80
2018-09-01T06:10:21.729Z,17.70
2018-09-01T06:12:50.325Z,15.47
2018-09-01T06:15:18.906Z,14.47
2018-09-01T06:17:47.563Z,13.70
2018-09-01T06:20:16.118Z,14.53
2018-09-01T06:22:44.754Z,15.73
2018-09-01T06:25:13.354Z,15.60
2018-09-01T06:27:45.345Z,17.03
2018-09-01T06:30:16.478Z,15.27
2018-09-01T06:32:45.104Z,16.97
2018-09-01T06:35:13.694Z,18.67
2018-09-01T06:37:42.368Z,18.80
2018-09-01T06:40:10.931Z,14.77
2018-09-01T06:42:39.552Z,24.80
2018-09-01T06:45:08.167Z,26.17
2018-09-01T06:47:36.760Z,16.70
2018-09-01T06:50:05.484Z,27.33
2018-09-01T06:52:34.094Z,22.97
2018-09-01T06:55:02.677Z,22.67
2018-09-01T06:57:31.385Z,26.53
2018-09-01T07:00:00.010Z,19.57
2018-09-01T07:02:28.632Z,16.47
2018-09-01T07:04:57.229Z,15.87
2018-09-01T07:07:25.808Z,14.90
2018-09-01T07:09:54.422Z,14.50
2018-09-01T07:12:23.006Z,14.43
2018-09-01T07:14:51.610Z,14.23
2018-09-01T07:17:20.197Z,15.03
2018-09-01T07:19:48.790Z,25.30
2018-09-01T07:22:17.350Z,16.00
2018-09-01T07:24:45.975Z,17.27
2018-09-01T07:27:14.563Z,18.60
2018-09-01T07:29:43.177Z,17.80
2018-09-01T07:32:11.791Z,16.37
2018-09-01T07:34:40.463Z,14.03
2018-09-01T07:37:09.112Z,14.90
2018-09-01T07:39:37.718Z,14.33
2018-09-01T07:42:06.469Z,15.00
2018-09-01T07:44:35.125Z,13.80
2018-09-01T07:47:03.731Z,15.70
2018-09-01T07:49:32.325Z,13.07
2018-09-01T07:52:00.905Z,14.37
2018-09-01T07:54:29.554Z,14.67
2018-09-01T07:56:58.132Z,14.77
2018-09-01T07:59:26.748Z,14.30
2018-09-01T08:01:55.335Z,12.70
2018-09-01T08:04:23.932Z,13.80
2018-09-01T08:06:52.534Z,12.07
2018-09-01T08:09:21.434Z,12.93
2018-09-01T08:11:50.455Z,13.43
2018-09-01T08:14:19.150Z,13.50
2018-09-01T08:16:48.111Z,11.43
2018-09-01T08:19:16.784Z,12.47
2018-09-01T08:21:45.399Z,12.80
2018-09-01T08:24:14.025Z,12.30
2018-09-01T08:26:42.608Z,12.37
2018-09-01T08:29:11.246Z,11.83
2018-09-01T08:31:39.824Z,11.90
2018-09-01T08:34:08.454Z,11.60
2018-09-01T08:36:37.105Z,11.80
2018-09-01T08:39:07.083Z,10.03
2018-09-01T08:41:35.730Z,10.67
2018-09-01T08:44:04.387Z,10.57
2018-09-01T08:46:32.975Z,9.80
2018-09-01T08:49:01.561Z,10.00
2018-09-01T08:51:30.134Z,9.13
2018-09-01T08:53:58.735Z,8.80
2018-09-01T08:56:27.368Z,8.93
2018-09-01T08:58:55.990Z,8.20
2018-09-01T09:01:24.595Z,7.60
2018-09-01T09:03:53.170Z,7.73
2018-09-01T09:06:21.779Z,6.67
2018-09-01T09:08:50.390Z,7.03
2018-09-01T09:11:18.983Z,6.80
2018-09-01T09:13:47.605Z,6.20
2018-09-01T09:16:16.207Z,6.17
2018-09-01T09:18:44.848Z,6.43
2018-09-01T09:21:13.476Z,6.53
2018-09-01T09:23:42.067Z,6.57
2018-09-01T09:26:10.673Z,6.33
2018-09-01T09:28:39.248Z,6.70
2018-09-01T09:31:07.946Z,5.80
2018-09-01T09:33:36.542Z,5.60
2018-09-01T09:36:05.266Z,6.03
2018-09-01T09:38:33.842Z,6.00
2018-09-01T09:41:02.454Z,5.53
2018-09-01T09:43:31.035Z,5.67
2018-09-01T09:45:59.654Z,5.40
2018-09-01T09:48:28.245Z,5.40
2018-09-01T09:50:56.897Z,5.00
2018-09-01T09:53:25.543Z,4.00
2018-09-01T09:55:54.164Z,4.43
2018-09-01T09:58:22.885Z,4.30
2018-09-01T10:00:59.101Z,4.57
2018-09-01T10:03:28.387Z,4.80
2018-09-01T10:05:57.000Z,4.00
2018-09-01T10:08:25.564Z,4.00
2018-09-01T10:10:54.171Z,4.43
2018-09-01T10:13:22.739Z,3.33
2018-09-01T10:15:51.333Z,3.40
2018-09-01T10:18:19.947Z,3.00
2018-09-01T10:20:48.533Z,2.80
2018-09-01T10:23:17.145Z,2.83
2018-09-01T10:25:45.755Z,3.00
2018-09-01T10:28:14.312Z,3.00
2018-09-01T10:30:42.886Z,3.03
2018-09-01T10:33:11.467Z,2.83
2018-09-01T10:35:40.057Z,2.90
2018-09-01T10:38:09.061Z,2.90
2018-09-01T10:40:37.677Z,2.40
2018-09-01T10:43:06.448Z,2.40
2018-09-01T10:45:35.410Z,2.40
2018-09-01T10:48:04.086Z,2.30
2018-09-01T10:50:32.692Z,2.80
2018-09-01T10:53:01.265Z,2.23
2018-09-01T10:55:29.899Z,2.60
2018-09-01T10:57:58.494Z,2.43
2018-09-01T11:00:27.087Z,2.33
2018-09-01T11:02:55.689Z,2.73
2018-09-01T11:05:24.333Z,2.97
2018-09-01T11:07:52.899Z,2.47
2018-09-01T11:10:21.499Z,2.30
2018-09-01T11:12:50.120Z,2.33
2018-09-01T11:15:18.704Z,2.00
2018-09-01T11:17:47.338Z,2.77
2018-09-01T11:20:16.011Z,1.93
2018-09-01T11:22:44.627Z,2.07
2018-09-01T11:25:13.232Z,2.40
2018-09-01T11:27:41.862Z,2.60
2018-09-01T11:30:11.520Z,3.00
2018-09-01T11:32:40.122Z,2.53
2018-09-01T11:35:09.022Z,2.50
2018-09-01T11:37:37.630Z,2.37
2018-09-01T11:40:06.356Z,2.43
2018-09-01T11:42:35.024Z,2.50
2018-09-01T11:45:03.585Z,2.20
2018-09-01T11:47:32.183Z,2.10
2018-09-01T11:50:00.832Z,2.43
2018-09-01T11:52:29.401Z,2.27
2018-09-01T11:54:58.059Z,2.30
2018-09-01T11:57:26.673Z,2.70
2018-09-01T11:59:55.268Z,2.27
2018-09-01T12:02:23.895Z,2.40
2018-09-01T12:04:52.502Z,2.50
2018-09-01T12:07:21.105Z,2.23
2018-09-01T12:09:49.699Z,2.30
2018-09-01T12:12:18.283Z,2.50
2018-09-01T12:14:46.847Z,2.20
2018-09-01T12:17:15.464Z,2.20
2018-09-01T12:19:44.041Z,2.50
2018-09-01T12:22:12.716Z,2.20
2018-09-01T12:24:41.306Z,2.00
2018-09-01T12:27:09.936Z,2.17
2018-09-01T12:29:39.337Z,2.23
2018-09-01T12:32:07.938Z,2.57
2018-09-01T12:34:36.489Z,2.40
2018-09-01T12:37:05.090Z,2.30
2018-09-01T12:39:33.649Z,2.13
2018-09-01T12:42:02.277Z,2.63
2018-09-01T12:44:30.851Z,2.17
2018-09-01T12:46:59.427Z,2.40
2018-09-01T12:49:27.999Z,2.40
2018-09-01T12:51:56.580Z,2.50
2018-09-01T12:54:25.148Z,2.50
2018-09-01T12:56:53.729Z,2.33
2018-09-01T12:59:22.361Z,2.47
2018-09-01T13:01:50.960Z,2.33
2018-09-01T13:04:19.540Z,2.17
2018-09-01T13:06:48.181Z,2.17
2018-09-01T13:09:16.752Z,2.40
2018-09-01T13:11:45.344Z,2.27
2018-09-01T13:14:13.923Z,2.10
2018-09-01T13:16:42.480Z,2.23
2018-09-01T13:19:11.196Z,2.10
2018-09-01T13:21:39.765Z,2.10
2018-09-01T13:24:08.388Z,2.07
2018-09-01T13:26:36.959Z,2.23
2018-09-01T13:29:05.581Z,2.50
2018-09-01T13:31:34.160Z,2.07
2018-09-01T13:34:03.478Z,2.20
2018-09-01T13:36:32.048Z,2.40
2018-09-01T13:39:00.671Z,2.20
2018-09-01T13:41:29.273Z,2.20
2018-09-01T13:43:57.851Z,2.60
2018-09-01T13:46:26.410Z,2.03
2018-09-01T13:48:54.998Z,2.13
2018-09-01T13:51:23.564Z,2.43
2018-09-01T13:53:52.170Z,2.27
2018-09-01T13:56:20.732Z,2.30
2018-09-01T13:58:49.334Z,1.90
2018-09-01T14:01:17.897Z,2.60
2018-09-01T14:03:46.479Z,1.80
2018-09-01T14:06:15.053Z,2.20
2018-09-01T14:08:43.625Z,1.93
2018-09-01T14:11:12.216Z,2.03
2018-09-01T14:13:40.810Z,2.10
2018-09-01T14:16:09.367Z,2.23
2018-09-01T14:18:38.004Z,2.20
2018-09-01T14:21:07.079Z,2.30
2018-09-01T14:23:35.666Z,2.47
2018-09-01T14:26:04.242Z,2.03
2018-09-01T14:28:32.848Z,2.13
2018-09-01T14:31:01.442Z,2.10
2018-09-01T14:33:30.041Z,2.10
2018-09-01T14:35:58.686Z,2.40
2018-09-01T14:38:27.297Z,2.00
2018-09-01T14:40:55.892Z,2.47
2018-09-01T14:43:24.509Z,2.40
2018-09-01T14:45:53.105Z,1.90
2018-09-01T14:48:21.787Z,2.13
2018-09-01T14:50:50.305Z,2.00
2018-09-01T14:53:18.970Z,2.20
2018-09-01T14:55:47.568Z,2.27
2018-09-01T14:58:16.181Z,2.33
2018-09-01T15:00:44.772Z,2.30
2018-09-01T15:03:13.380Z,2.20
2018-09-01T15:05:41.966Z,2.23
2018-09-01T15:08:10.567Z,2.10
2018-09-01T15:10:39.145Z,2.40
2018-09-01T15:13:07.746Z,2.13
2018-09-01T15:15:36.327Z,2.97
2018-09-01T15:18:04.953Z,2.20
2018-09-01T15:20:33.590Z,2.37
2018-09-01T15:23:02.450Z,2.50
2018-09-01T15:25:31.125Z,2.20
2018-09-01T15:27:59.700Z,2.30
2018-09-01T15:30:28.300Z,1.93
2018-09-01T15:32:56.871Z,1.93
2018-09-01T15:35:25.513Z,2.43
2018-09-01T15:37:54.172Z,2.27
2018-09-01T15:40:22.791Z,2.40
2018-09-01T15:42:51.362Z,2.37
2018-09-01T15:45:19.936Z,2.70
2018-09-01T15:47:48.589Z,2.50
2018-09-01T15:50:17.180Z,2.43
2018-09-01T15:52:45.813Z,2.53
2018-09-01T15:55:14.406Z,2.53
2018-09-01T15:57:42.980Z,2.77
2018-09-01T16:00:11.589Z,2.70
2018-09-01T16:02:40.153Z,2.50
2018-09-01T16:05:08.737Z,2.60
2018-09-01T16:07:37.309Z,2.40
2018-09-01T16:10:06.157Z,2.33
2018-09-01T16:12:34.763Z,2.60
2018-09-01T16:15:03.373Z,2.57
2018-09-01T16:17:31.943Z,2.53
2018-09-01T16:20:00.566Z,2.70
2018-09-01T16:22:29.193Z,2.70
2018-09-01T16:24:57.811Z,2.40
2018-09-01T16:27:26.404Z,2.47
2018-09-01T16:29:54.990Z,2.50
2018-09-01T16:32:23.590Z,2.50
2018-09-01T16:34:52.195Z,2.80
2018-09-01T16:37:20.822Z,2.43
2018-09-01T16:39:49.416Z,2.50
2018-09-01T16:42:17.972Z,2.50
2018-09-01T16:44:46.569Z,2.40
2018-09-01T16:47:15.151Z,2.47
2018-09-01T16:49:43.776Z,2.50
2018-09-01T16:52:12.528Z,3.03
2018-09-01T16:54:41.085Z,2.60
2018-09-01T16:57:09.666Z,2.60
2018-09-01T16:59:38.277Z,2.70
2018-09-01T17:02:06.961Z,2.60
2018-09-01T17:04:35.579Z,2.50
2018-09-01T17:07:04.191Z,2.30
2018-09-01T17:09:32.882Z,2.60
2018-09-01T17:12:01.474Z,2.40
2018-09-01T17:14:30.084Z,2.50
2018-09-01T17:16:58.652Z,2.27
2018-09-01T17:19:27.261Z,2.87
2018-09-01T17:21:55.834Z,2.60
2018-09-01T17:24:24.458Z,2.80
2018-09-01T17:26:53.057Z,2.60
2018-09-01T17:29:21.637Z,3.10
2018-09-01T17:31:50.284Z,3.13
2018-09-01T17:34:18.849Z,2.83
2018-09-01T17:36:47.441Z,5.13
2018-09-01T17:39:16.041Z,2.70
2018-09-01T17:41:44.646Z,2.93
2018-09-01T17:44:13.242Z,2.87
2018-09-01T17:46:41.838Z,2.57
2018-09-01T17:49:10.425Z,3.13
2018-09-01T17:51:39.053Z,7.60
2018-09-01T17:54:07.660Z,3.80
2018-09-01T17:56:36.353Z,3.97
2018-09-01T17:59:04.951Z,3.70
2018-09-01T18:01:34.044Z,4.47
2018-09-01T18:04:02.776Z,5.30
2018-09-01T18:06:31.384Z,4.63
2018-09-01T18:08:59.961Z,3.50
2018-09-01T18:11:28.565Z,4.40
2018-09-01T18:13:57.181Z,3.13
2018-09-01T18:16:25.820Z,3.27
2018-09-01T18:18:54.401Z,3.13
2018-09-01T18:21:22.993Z,3.43
2018-09-01T18:23:51.574Z,3.43
2018-09-01T18:26:20.164Z,3.23
2018-09-01T18:28:48.722Z,3.20
2018-09-01T18:31:17.406Z,3.90
2018-09-01T18:33:45.956Z,3.27
2018-09-01T18:36:14.566Z,3.53
2018-09-01T18:38:43.154Z,2.70
2018-09-01T18:41:11.836Z,3.57
2018-09-01T18:43:40.361Z,3.20
2018-09-01T18:46:08.951Z,3.40
2018-09-01T18:48:37.524Z,3.40
2018-09-01T18:51:06.174Z,3.90
2018-09-01T18:53:34.854Z,3.53
2018-09-01T18:56:03.495Z,3.10
2018-09-01T18:58:32.071Z,3.50
2018-09-01T19:01:00.734Z,3.70
2018-09-01T19:03:29.364Z,3.20
2018-09-01T19:05:57.984Z,3.47
2018-09-01T19:08:26.562Z,3.17
2018-09-01T19:10:55.159Z,3.70
2018-09-01T19:13:23.742Z,3.70
2018-09-01T19:15:52.321Z,3.80
2018-09-01T19:18:20.895Z,4.00
2018-09-01T19:20:49.491Z,4.10
2018-09-01T19:23:18.068Z,4.00
2018-09-01T19:25:46.673Z,4.50
2018-09-01T19:28:15.255Z,5.43
2018-09-01T19:30:43.818Z,5.40
2018-09-01T19:33:12.432Z,5.13
2018-09-01T19:35:40.994Z,4.30
2018-09-01T19:38:09.598Z,4.40
2018-09-01T19:40:38.228Z,5.07
2018-09-01T19:43:06.863Z,4.20
2018-09-01T19:45:35.589Z,4.00
2018-09-01T19:48:04.070Z,4.00
2018-09-01T19:50:32.877Z,3.90
2018-09-01T19:53:01.485Z,3.20
2018-09-01T19:55:30.060Z,4.10
2018-09-01T19:57:58.648Z,3.87
2018-09-01T20:00:27.206Z,3.90
2018-09-01T20:02:55.823Z,3.80
2018-09-01T20:05:24.409Z,3.90
2018-09-01T20:07:53.013Z,4.47
2018-09-01T20:10:21.748Z,4.10
2018-09-01T20:12:51.849Z,4.23
2018-09-01T20:15:20.484Z,4.80
2018-09-01T20:17:49.063Z,4.53
2018-09-01T20:20:17.674Z,5.27
2018-09-01T20:22:46.236Z,4.03
2018-09-01T20:25:14.915Z,4.10
2018-09-01T20:27:43.538Z,4.20
2018-09-01T20:30:12.184Z,4.27
2018-09-01T20:32:40.790Z,3.73
2018-09-01T20:35:14.641Z,4.50
2018-09-01T20:37:43.292Z,3.73
2018-09-01T20:40:11.871Z,4.30
2018-09-01T20:42:40.477Z,4.90
2018-09-01T20:45:09.080Z,4.40
2018-09-01T20:47:37.769Z,4.57
2018-09-01T20:50:06.405Z,4.77
2018-09-01T20:52:35.018Z,5.83
2018-09-01T20:55:03.640Z,6.00
2018-09-01T20:57:32.244Z,4.83
2018-09-01T21:00:00.828Z,4.87
2018-09-01T21:02:29.426Z,5.20
2018-09-01T21:04:58.022Z,4.70
2018-09-01T21:07:26.636Z,4.80
2018-09-01T21:09:55.219Z,5.33
2018-09-01T21:12:23.812Z,4.40
2018-09-01T21:14:52.380Z,4.43
2018-09-01T21:17:21.003Z,3.80
2018-09-01T21:19:49.566Z,4.23
2018-09-01T21:22:18.176Z,4.13
2018-09-01T21:24:46.982Z,4.37
2018-09-01T21:27:15.601Z,4.47
2018-09-01T21:29:44.286Z,5.13
2018-09-01T21:32:12.886Z,4.50
2018-09-01T21:34:41.452Z,5.00
2018-09-01T21:37:10.035Z,5.17
2018-09-01T21:39:38.607Z,5.20
2018-09-01T21:42:07.206Z,4.57
2018-09-01T21:44:35.771Z,4.40
2018-09-01T21:47:04.411Z,4.93
2018-09-01T21:49:33.026Z,4.87
2018-09-01T21:52:01.840Z,5.00
2018-09-01T21:54:30.449Z,5.23
2018-09-01T21:56:59.084Z,6.67
2018-09-01T21:59:27.917Z,6.10
2018-09-01T22:02:01.697Z,5.27
2018-09-01T22:04:35.317Z,5.10
2018-09-01T22:07:03.901Z,5.10
2018-09-01T22:09:32.509Z,5.07
2018-09-01T22:12:01.084Z,5.50
2018-09-01T22:14:29.681Z,6.27
2018-09-01T22:16:58.264Z,5.23
2018-09-01T22:19:26.864Z,5.40
2018-09-01T22:21:55.451Z,4.83
2018-09-01T22:24:24.056Z,5.40
2018-09-01T22:26:52.622Z,5.77
2018-09-01T22:29:21.201Z,6.10
2018-09-01T22:31:49.765Z,6.57
2018-09-01T22:34:18.424Z,7.20
2018-09-01T22:36:46.986Z,6.40
2018-09-01T22:39:15.570Z,6.70
2018-09-01T22:41:44.137Z,5.57
2018-09-01T22:44:12.718Z,5.30
2018-09-01T22:46:41.302Z,5.53
2018-09-01T22:49:09.894Z,6.10
2018-09-01T22:51:38.505Z,6.23
2018-09-01T22:54:07.086Z,5.80
2018-09-01T22:56:35.653Z,5.57
2018-09-01T22:59:04.289Z,4.60
2018-09-01T23:01:32.865Z,4.90
2018-09-01T23:04:01.444Z,4.97
2018-09-01T23:06:30.003Z,4.90
2018-09-01T23:08:58.590Z,4.50
2018-09-01T23:11:27.163Z,4.23
2018-09-01T23:13:55.754Z,4.17
2018-09-01T23:16:24.324Z,4.40
2018-09-01T23:18:52.933Z,4.97
2018-09-01T23:21:21.498Z,4.53
2018-09-01T23:23:50.085Z,4.90
2018-09-01T23:26:18.656Z,4.40
2018-09-01T23:28:47.233Z,4.90
2018-09-01T23:31:15.795Z,4.57
2018-09-01T23:33:44.381Z,5.07
2018-09-01T23:36:12.944Z,6.97
2018-09-01T23:38:41.518Z,5.80
2018-09-01T23:41:10.094Z,5.33
2018-09-01T23:43:38.686Z,5.43
2018-09-01T23:46:07.364Z,5.30
2018-09-01T23:48:35.940Z,4.87
2018-09-01T23:51:04.586Z,5.20
2018-09-01T23:53:33.177Z,5.10
2018-09-01T23:56:01.742Z,6.40
2018-09-01T23:58:30.350Z,5.77
